This is the latest recevied weather packets stored in our database for station/object OE-11190. If no packets are shown the sender has not sent any weather packets the latest 10 day(s).
| Time | Temp. | Humidity | Pressure | Rain* | Wind** | Luminosity | Snow |
|---|---|---|---|---|---|---|---|
| 1788145880 | 18.33° C | 80% | 1013.7 hPa | 0 mm | - | 0 W/m² | - |
| 1788145507 | 18.33° C | 79% | 1013.7 hPa | 0 mm | - | 0 W/m² | - |
| 1788144907 | 18.33° C | 79% | 1013.8 hPa | 0 mm | - | 0 W/m² | - |
| 1788144080 | 17.78° C | 80% | 1013.9 hPa | 0 mm | - | 0 W/m² | - |
| 1788143707 | 18.33° C | 78% | 1013.9 hPa | 0 mm | - | 0 W/m² | - |
| 1788143107 | 18.33° C | 78% | 1014.1 hPa | 0 mm | - | 0 W/m² | - |
| 1788142280 | 18.89° C | 76% | 1013.9 hPa | 0 mm | - | 0 W/m² | - |
| 1788141908 | 18.89° C | 74% | 1014.1 hPa | 0 mm | - | 0 W/m² | - |
| 1788141308 | 19.44° C | 72% | 1013.9 hPa | 0 mm | - | 0 W/m² | - |
| 1788140481 | 18.89° C | 75% | 1014.1 hPa | 0 mm | - | 0 W/m² | - |
| 1788140108 | 18.33° C | 76% | 1014.1 hPa | 0 mm | - | 0 W/m² | - |
| 1788139508 | 18.89° C | 75% | 1014.3 hPa | 0 mm | - | 0 W/m² | - |
| 1788138680 | 18.89° C | 75% | 1014.4 hPa | 0 mm | - | 0 W/m² | - |
| 1788138308 | 18.89° C | 74% | 1014.4 hPa | 0 mm | - | 0 W/m² | - |
| 1788137708 | 18.89° C | 74% | 1014.4 hPa | 0 mm | - | 0 W/m² | - |
| 1788136880 | 19.44° C | 72% | 1014.4 hPa | 0 mm | - | 0 W/m² | - |
| 1788136508 | 19.44° C | 71% | 1014.3 hPa | 0 mm | - | 0 W/m² | - |
| 1788135908 | 20° C | 68% | 1014.4 hPa | 0 mm | - | 0 W/m² | - |
| 1788135081 | 20.56° C | 66% | 1014.3 hPa | 0 mm | - | 0 W/m² | - |
| 1788134708 | 20.56° C | 67% | 1014.3 hPa | 0 mm | - | 0 W/m² | - |
| 1788134108 | 20.56° C | 67% | 1014.2 hPa | 0 mm | - | 0 W/m² | - |
| 1788133519 | 20.56° C | 66% | 1014.2 hPa | 0 mm | - | 0 W/m² | - |
| 1788132907 | 20.56° C | 65% | 1014.3 hPa | 0 mm | - | 0 W/m² | - |
| 1788132307 | 20.56° C | 65% | 1014.3 hPa | 0 mm | - | 0 W/m² | - |
| 1788131708 | 20.56° C | 64% | 1014.4 hPa | 0 mm | - | 0 W/m² | - |
* Rain latest hour (hover to see other rain measurements)
** Current wind speed in m/s (hover to see current wind gust speed)